Quartzsite, Arizona
Current Conditions -  °F | °C
As of 6:52 AM on Thursday 27 Nov 2014 (Local Time) from KBLH Reporting Station
Clear Clear  
Wind Chill: 52°   Ceiling: Unl
Heat Index: 52°   Visibility: 10mi
Dew Point: 15°   Wind: 3mph
Humidity: 23%   Direction: 30°NNE
Pressure: 30.2"   Gusts: NA
Location:  33.67°N, 114.22°W
Report Text: KBLH 271352Z AUTO 03003KT 10SM CLR 11/M09 A3020 RMK AO2 SLP222 T01111094
Loading
Personal Weather Stations






























Interactive Weather Map New forecast layout! Learn more

10-Day Weather Forecast

Advertisements
Track Severe Weather on mobile